Time;durP1;ratioP1;P1;durP2;ratioP2;P2;SDS_P1;SDS_P2;PMS_P1;PMS_P2;Temp;Humidity;BMP_temperature;BMP_pressure;BME280_temperature;BME280_humidity;BME280_pressure;Samples;Min_cycle;Max_cycle;Signal;HPM_P1;HPM_P2
2023/09/22 00:03:23;;;;;;;0.70;0.40;;;12.90;99.90;;;;;;4847747;29;20036;-82
2023/09/22 00:06:19;;;;;;;0.60;0.43;;;11.60;99.90;;;;;;4877126;29;20038;-83
2023/09/22 00:12:48;;;;;;;0.15;0.15;;;12.30;99.90;;;;;;4934473;28;20039;-83
2023/09/22 00:15:50;;;;;;;0.30;0.30;;;12.80;99.90;;;;;;4979721;28;20023;-81
2023/09/22 00:22:24;;;;;;;0.30;0.20;;;12.70;99.90;;;;;;4980311;28;20060;-83
2023/09/22 00:29:12;;;;;;;3.95;0.52;;;13.10;99.90;;;;;;5019690;28;20078;-82
2023/09/22 00:35:42;;;;;;;23.55;0.82;;;13.10;99.90;;;;;;4960878;29;20027;-81
2023/09/22 00:38:14;;;;;;;1.13;0.60;;;13.00;99.90;;;;;;4960424;29;20043;-80
2023/09/22 00:41:22;;;;;;;0.30;0.30;;;13.10;99.90;;;;;;4959259;29;20020;-82
2023/09/22 00:44:22;;;;;;;0.93;0.40;;;12.90;99.90;;;;;;4997787;28;20035;-83
2023/09/22 00:47:40;;;;;;;0.65;0.30;;;12.90;99.90;;;;;;4998734;28;20083;-83
2023/09/22 00:54:32;;;;;;;0.28;0.28;;;12.60;99.90;;;;;;4979823;28;20059;-83
2023/09/22 00:57:55;;;;;;;1.08;0.68;;;12.70;99.90;;;;;;4972228;28;20087;-83
2023/09/22 01:03:55;;;;;;;0.20;0.20;;;13.10;99.90;;;;;;4995169;28;20038;-82
2023/09/22 01:18:18;;;;;;;0.30;0.30;;;13.00;99.90;;;;;;4906007;29;20048;-83
2023/09/22 01:21:41;;;;;;;0.30;0.30;;;12.80;99.90;;;;;;4921842;29;20041;-83
2023/09/22 01:24:42;;;;;;;0.35;0.35;;;12.80;99.90;;;;;;4921617;29;20041;-82
2023/09/22 01:27:26;;;;;;;1.55;0.80;;;12.70;99.90;;;;;;4909802;29;20088;-82
2023/09/22 01:30:47;;;;;;;0.75;0.73;;;13.30;99.90;;;;;;4940647;29;20036;-80
2023/09/22 01:34:08;;;;;;;2.20;0.30;;;12.80;99.90;;;;;;4940734;29;20033;-84
2023/09/22 01:40:37;;;;;;;0.20;0.20;;;12.70;99.90;;;;;;4944731;29;20048;-83
2023/09/22 01:44:03;;;;;;;0.65;0.45;;;12.80;99.90;;;;;;4949578;28;20024;-82
2023/09/22 01:46:50;;;;;;;0.38;0.38;;;12.80;99.90;;;;;;5001998;28;20022;-82
2023/09/22 01:49:34;;;;;;;0.85;0.43;;;12.80;99.90;;;;;;5041774;28;20018;-83
2023/09/22 01:53:09;;;;;;;2.95;0.50;;;12.80;99.90;;;;;;5042229;28;20017;-82
2023/09/22 01:56:23;;;;;;;13.80;0.70;;;12.70;99.90;;;;;;4982730;28;20022;-82
2023/09/22 01:59:26;;;;;;;0.30;0.28;;;12.70;99.90;;;;;;4966586;28;20019;-81
2023/09/22 02:02:01;;;;;;;0.43;0.30;;;12.90;99.90;;;;;;4965700;28;20044;-82
2023/09/22 02:05:36;;;;;;;7.50;0.75;;;12.70;99.90;;;;;;4982735;28;20015;-81
2023/09/22 02:08:49;;;;;;;3.28;0.40;;;12.80;99.90;;;;;;5040222;28;20034;-82
2023/09/22 02:22:43;;;;;;;0.52;0.20;;;12.30;99.90;;;;;;4944406;28;20026;-83
2023/09/22 02:26:26;;;;;;;0.38;0.30;;;12.40;99.90;;;;;;4887619;29;20025;-82
2023/09/22 02:29:41;;;;;;;1.08;0.43;;;12.40;99.90;;;;;;4835002;29;20052;-82
2023/09/22 02:35:49;;;;;;;0.30;0.30;;;12.50;99.90;;;;;;4880216;28;20032;-80
2023/09/22 02:38:37;;;;;;;1.27;0.85;;;12.50;99.90;;;;;;4964923;28;20047;-82
2023/09/22 02:41:48;;;;;;;0.68;0.63;;;12.60;99.90;;;;;;4958863;28;20019;-82
2023/09/22 02:44:39;;;;;;;0.93;0.40;;;12.50;99.90;;;;;;4964788;28;20019;-82
2023/09/22 02:47:31;;;;;;;0.68;0.40;;;12.40;99.90;;;;;;4980093;28;20011;-81
2023/09/22 02:50:30;;;;;;;4.20;0.57;;;12.70;99.90;;;;;;4981636;28;20028;-82
2023/09/22 02:53:50;;;;;;;7.18;0.65;;;11.90;99.90;;;;;;4981341;28;20025;-83
2023/09/22 03:04:09;;;;;;;0.22;0.22;;;12.70;99.90;;;;;;5028538;28;20041;-81
2023/09/22 03:07:18;;;;;;;0.47;0.47;;;12.40;99.90;;;;;;5051139;28;20025;-82
2023/09/22 03:13:09;;;;;;;0.75;0.52;;;12.60;99.90;;;;;;5060511;28;20036;-82
2023/09/22 03:16:31;;;;;;;1.70;0.63;;;12.60;99.90;;;;;;5053462;28;20040;-83
2023/09/22 03:19:50;;;;;;;1.48;0.85;;;12.70;99.90;;;;;;5038505;28;20010;-82
2023/09/22 03:23:23;;;;;;;0.35;0.35;;;12.70;99.90;;;;;;5039089;28;20009;-82
2023/09/22 03:29:50;;;;;;;0.73;0.73;;;12.70;99.90;;;;;;5051335;28;20037;-83
2023/09/22 03:43:30;;;;;;;1.00;0.38;;;12.80;99.90;;;;;;5039574;28;20115;-82
2023/09/22 03:50:20;;;;;;;0.30;0.30;;;13.30;99.90;;;;;;5028144;28;20033;-83
2023/09/22 03:52:49;;;;;;;0.70;0.55;;;12.80;99.90;;;;;;5021754;28;20065;-83
2023/09/22 03:58:42;;;;;;;7.55;0.90;;;12.80;99.90;;;;;;5022137;28;20110;-82
2023/09/22 04:02:02;;;;;;;0.57;0.57;;;12.60;99.90;;;;;;4960104;28;20046;-84
2023/09/22 04:08:26;;;;;;;0.45;0.35;;;12.40;99.90;;;;;;4961213;28;20064;-80
2023/09/22 04:19:18;;;;;;;0.85;0.30;;;12.90;99.90;;;;;;5095030;22;20047;-83
2023/09/22 04:27:09;;;;;;;4.03;0.40;;;13.00;99.90;;;;;;5188600;22;20068;-82
2023/09/22 04:29:38;;;;;;;;;;;13.00;99.90;;;;;;5072209;28;20108;-82
2023/09/22 04:32:07;;;;;;;4.60;0.63;;;13.00;99.90;;;;;;5072521;28;19904;-81
2023/09/22 04:34:36;;;;;;;1.45;0.93;;;13.00;99.90;;;;;;5070042;28;20044;-81
2023/09/22 04:37:04;;;;;;;0.65;0.63;;;13.00;99.90;;;;;;5090334;28;20028;-81
2023/09/22 04:39:31;;;;;;;1.35;0.40;;;13.10;99.90;;;;;;5073553;28;20025;-81
2023/09/22 04:41:58;;;;;;;1.25;0.40;;;13.10;99.90;;;;;;5075903;28;20032;-81
2023/09/22 04:44:24;;;;;;;0.65;0.65;;;13.00;99.90;;;;;;5071052;28;20024;-81
2023/09/22 04:46:50;;;;;;;0.50;0.38;;;13.10;99.90;;;;;;5068533;28;20040;-80
2023/09/22 04:49:16;;;;;;;1.38;0.93;;;13.10;99.90;;;;;;5062996;28;20032;-80
2023/09/22 04:51:42;;;;;;;3.88;0.98;;;13.10;99.90;;;;;;5056685;28;20109;-79
2023/09/22 04:54:07;;;;;;;0.47;0.40;;;13.00;99.90;;;;;;5055912;28;20096;-78
2023/09/22 04:56:33;;;;;;;1.40;0.90;;;13.10;99.90;;;;;;5056278;28;20017;-79
2023/09/22 04:59:00;;;;;;;0.45;0.45;;;13.00;99.90;;;;;;5057107;28;20021;-79
2023/09/22 05:01:26;;;;;;;0.90;0.85;;;13.10;99.90;;;;;;5064377;28;20077;-80
2023/09/22 05:03:52;;;;;;;0.43;0.43;;;13.10;99.90;;;;;;5061516;28;20150;-80
2023/09/22 05:06:17;;;;;;;0.50;0.50;;;13.10;99.90;;;;;;5061114;28;20059;-80
2023/09/22 05:08:44;;;;;;;0.95;0.82;;;13.00;99.90;;;;;;5085179;28;20044;-80
2023/09/22 05:11:09;;;;;;;0.73;0.30;;;13.00;99.90;;;;;;5072042;28;20626;-80
2023/09/22 05:13:36;;;;;;;0.40;0.40;;;13.00;99.90;;;;;;5069742;28;20058;-80
2023/09/22 05:16:13;;;;;;;2.28;0.30;;;13.00;99.90;;;;;;5066912;28;20025;-80
2023/09/22 05:18:39;;;;;;;0.70;0.70;;;13.00;99.90;;;;;;5070202;28;20020;-81
2023/09/22 05:21:09;;;;;;;3.83;1.17;;;13.10;99.90;;;;;;5092239;28;20033;-80
2023/09/22 05:23:35;;;;;;;0.43;0.40;;;13.10;99.90;;;;;;5073069;28;20087;-80
2023/09/22 05:26:07;;;;;;;1.55;1.33;;;13.00;99.90;;;;;;5087040;28;20044;-81
2023/09/22 05:28:34;;;;;;;0.30;0.30;;;13.00;99.90;;;;;;5070411;28;20028;-81
2023/09/22 05:31:00;;;;;;;1.75;0.85;;;13.10;99.90;;;;;;5075936;28;20050;-81
2023/09/22 05:33:28;;;;;;;0.30;0.30;;;13.10;99.90;;;;;;5078706;28;20033;-82
2023/09/22 05:35:57;;;;;;;4.18;0.68;;;13.00;99.90;;;;;;5079431;28;20043;-82
2023/09/22 05:38:23;;;;;;;7.50;0.77;;;13.00;99.90;;;;;;5074857;28;20025;-81
2023/09/22 05:40:48;;;;;;;0.70;0.70;;;13.10;99.90;;;;;;5073943;28;20146;-81
2023/09/22 05:43:14;;;;;;;0.52;0.52;;;13.40;99.90;;;;;;5076496;28;20043;-81
2023/09/22 05:45:43;;;;;;;0.55;0.30;;;13.00;99.90;;;;;;5075699;28;20084;-80
2023/09/22 05:48:09;;;;;;;0.40;0.40;;;13.00;99.90;;;;;;5092587;28;20037;-81
2023/09/22 05:50:35;;;;;;;4.38;0.68;;;13.00;99.90;;;;;;5073503;28;20100;-81
2023/09/22 05:53:02;;;;;;;1.08;0.57;;;13.10;99.90;;;;;;5071708;28;20111;-81
2023/09/22 05:55:28;;;;;;;0.30;0.25;;;13.10;99.90;;;;;;5060527;28;20024;-80
2023/09/22 05:58:46;;;;;;;0.63;0.43;;;13.20;99.90;;;;;;5099076;28;20029;-82
2023/09/22 06:01:42;;;;;;;1.48;1.20;;;13.20;99.90;;;;;;5081899;28;20021;-82
2023/09/22 06:04:12;;;;;;;1.42;1.10;;;13.10;99.90;;;;;;5081151;28;20111;-82
2023/09/22 06:06:42;;;;;;;1.33;0.60;;;13.20;99.90;;;;;;5077898;28;20012;-81
2023/09/22 06:09:11;;;;;;;;;;;13.20;99.90;;;;;;5076398;28;20051;-82
2023/09/22 06:11:38;;;;;;;8.30;1.08;;;13.40;99.90;;;;;;5062618;28;19914;-79
2023/09/22 06:14:05;;;;;;;2.10;0.65;;;13.10;99.90;;;;;;5066302;28;20017;-79
2023/09/22 06:16:30;;;;;;;0.77;0.70;;;13.10;99.90;;;;;;5059434;28;20020;-78
2023/09/22 06:18:56;;;;;;;1.20;0.85;;;13.10;99.90;;;;;;5060241;28;20093;-78
2023/09/22 06:21:22;;;;;;;1.05;0.98;;;13.00;99.90;;;;;;5072677;28;20020;-78
2023/09/22 06:23:49;;;;;;;5.93;1.48;;;12.90;99.90;;;;;;5082709;28;20035;-80
2023/09/22 06:26:16;;;;;;;1.02;0.45;;;13.00;99.90;;;;;;5071743;28;20033;-79
2023/09/22 06:29:02;;;;;;;1.02;0.35;;;13.00;99.90;;;;;;5073530;28;20039;-80
2023/09/22 06:31:28;;;;;;;0.70;0.70;;;13.00;99.90;;;;;;5075456;28;20154;-80
2023/09/22 06:33:54;;;;;;;3.90;0.82;;;13.10;99.90;;;;;;5068493;28;20094;-78
2023/09/22 06:36:19;;;;;;;0.50;0.50;;;13.10;99.90;;;;;;5065761;28;20027;-78
2023/09/22 06:38:45;;;;;;;3.05;0.60;;;13.10;99.90;;;;;;5070235;28;20016;-80
2023/09/22 06:41:17;;;;;;;0.45;0.45;;;13.10;99.90;;;;;;5059917;28;20504;-79
2023/09/22 06:43:44;;;;;;;5.03;0.60;;;13.20;99.90;;;;;;5074188;28;20554;-78
2023/09/22 06:46:10;;;;;;;0.40;0.40;;;13.20;99.90;;;;;;5056750;28;20497;-77
2023/09/22 06:48:36;;;;;;;1.23;0.63;;;13.10;99.90;;;;;;5073503;28;20028;-78
2023/09/22 06:51:02;;;;;;;0.20;0.20;;;13.10;99.90;;;;;;5054380;28;20024;-77
2023/09/22 06:53:29;;;;;;;1.27;0.47;;;13.10;99.90;;;;;;5074124;28;20098;-77
2023/09/22 06:56:09;;;;;;;0.55;0.50;;;13.10;99.90;;;;;;5074413;28;20024;-78
2023/09/22 06:58:36;;;;;;;0.20;0.20;;;13.10;99.90;;;;;;5055981;28;20745;-78
2023/09/22 07:01:09;;;;;;;1.00;0.35;;;13.20;99.90;;;;;;5075255;28;20025;-78
2023/09/22 07:03:39;;;;;;;1.05;0.68;;;13.30;99.90;;;;;;5056405;28;20031;-79
2023/09/22 07:06:07;;;;;;;2.33;0.70;;;13.30;99.90;;;;;;5055496;28;20024;-77
2023/09/22 07:08:34;;;;;;;1.48;0.30;;;13.30;99.90;;;;;;5073262;28;20028;-78
2023/09/22 07:11:04;;;;;;;0.63;0.45;;;13.40;99.90;;;;;;5071387;28;20074;-78
2023/09/22 07:13:30;;;;;;;1.05;0.50;;;13.50;99.90;;;;;;5053334;28;20029;-77
2023/09/22 07:15:59;;;;;;;0.50;0.50;;;13.60;99.90;;;;;;5054540;28;20025;-78
2023/09/22 07:18:25;;;;;;;0.82;0.65;;;13.70;99.90;;;;;;5073565;28;20094;-78
2023/09/22 07:20:52;;;;;;;6.07;1.35;;;13.70;99.90;;;;;;5053162;28;20411;-77
2023/09/22 07:23:20;;;;;;;2.03;0.50;;;13.90;99.90;;;;;;5071298;28;20280;-76
2023/09/22 07:25:56;;;;;;;0.70;0.22;;;14.10;99.90;;;;;;5071245;28;20106;-77
2023/09/22 07:28:22;;;;;;;0.25;0.25;;;14.30;99.90;;;;;;5071044;28;20099;-78
2023/09/22 07:30:47;;;;;;;0.40;0.40;;;14.40;99.90;;;;;;5071054;28;20490;-78
2023/09/22 07:33:13;;;;;;;0.60;0.28;;;14.30;99.90;;;;;;5054657;28;20028;-78
2023/09/22 07:35:38;;;;;;;7.75;0.82;;;14.10;99.90;;;;;;5055907;28;20035;-77
2023/09/22 07:38:04;;;;;;;1.15;0.75;;;13.90;99.90;;;;;;5073836;28;20025;-77
2023/09/22 07:40:30;;;;;;;0.65;0.30;;;13.80;99.90;;;;;;5073329;28;20376;-77
2023/09/22 07:42:55;;;;;;;0.80;0.77;;;13.90;99.90;;;;;;5054835;28;20102;-76
2023/09/22 07:45:21;;;;;;;0.52;0.52;;;13.90;99.90;;;;;;5070901;28;20032;-76
2023/09/22 07:47:47;;;;;;;0.80;0.55;;;13.80;99.90;;;;;;5053972;28;20508;-77
2023/09/22 07:50:13;;;;;;;0.38;0.30;;;13.90;99.90;;;;;;5074916;28;20033;-78
2023/09/22 07:52:39;;;;;;;0.77;0.77;;;14.00;99.90;;;;;;5055771;28;20031;-77
2023/09/22 07:55:07;;;;;;;0.40;0.40;;;14.30;99.90;;;;;;5074262;28;20028;-78
2023/09/22 07:57:33;;;;;;;2.13;0.47;;;14.60;99.90;;;;;;5054831;28;20074;-77
2023/09/22 07:59:59;;;;;;;2.50;0.30;;;14.90;99.90;;;;;;5072794;28;20028;-77
2023/09/22 08:02:25;;;;;;;0.30;0.30;;;15.00;99.90;;;;;;5073259;28;20377;-77
2023/09/22 08:04:51;;;;;;;4.40;0.60;;;15.20;99.90;;;;;;5052893;28;20025;-77
2023/09/22 08:07:16;;;;;;;0.63;0.63;;;15.20;99.90;;;;;;5070417;28;20520;-78
2023/09/22 08:09:42;;;;;;;5.30;0.68;;;15.20;99.90;;;;;;5070298;28;20051;-77
2023/09/22 08:12:08;;;;;;;0.73;0.50;;;15.30;99.90;;;;;;5070411;28;20031;-77
2023/09/22 08:14:35;;;;;;;4.80;1.10;;;15.60;99.90;;;;;;5070442;28;20032;-77
2023/09/22 08:17:07;;;;;;;1.45;0.52;;;15.80;99.90;;;;;;5052047;28;20020;-76
2023/09/22 08:19:33;;;;;;;5.88;0.70;;;15.90;99.90;;;;;;5053869;28;20029;-77
2023/09/22 08:21:59;;;;;;;1.77;0.55;;;16.10;99.90;;;;;;5074683;28;20538;-77
2023/09/22 08:24:25;;;;;;;2.08;0.90;;;16.20;99.90;;;;;;5073006;28;20051;-77
2023/09/22 08:26:51;;;;;;;0.50;0.50;;;16.20;99.90;;;;;;5072502;28;20485;-78
2023/09/22 08:29:17;;;;;;;2.03;0.50;;;16.10;99.90;;;;;;5072041;28;20033;-78
2023/09/22 08:31:43;;;;;;;0.38;0.30;;;16.10;99.90;;;;;;5069917;28;20484;-76
2023/09/22 08:34:09;;;;;;;6.25;1.88;;;16.20;99.90;;;;;;5052206;28;20033;-77
2023/09/22 08:36:34;;;;;;;0.93;0.65;;;16.30;99.90;;;;;;5072537;28;20035;-77
2023/09/22 08:39:00;;;;;;;3.55;0.43;;;16.30;99.90;;;;;;5053953;28;20074;-77
2023/09/22 08:41:26;;;;;;;2.35;0.70;;;16.30;99.90;;;;;;5073144;28;20520;-77
2023/09/22 08:43:57;;;;;;;1.98;1.15;;;16.30;99.90;;;;;;5052670;28;20060;-77
2023/09/22 08:46:23;;;;;;;1.05;0.50;;;16.50;99.90;;;;;;5054923;28;20076;-78
2023/09/22 08:48:50;;;;;;;1.27;0.85;;;16.40;99.90;;;;;;5072258;28;20080;-78
2023/09/22 08:51:17;;;;;;;4.05;0.40;;;16.10;99.90;;;;;;5073436;28;20020;-77
2023/09/22 08:53:43;;;;;;;3.45;1.20;;;15.90;99.90;;;;;;5054875;28;20020;-76
2023/09/22 08:56:09;;;;;;;2.17;0.98;;;15.90;99.90;;;;;;5070504;28;20571;-77
2023/09/22 08:58:35;;;;;;;0.60;0.60;;;16.20;99.90;;;;;;5070621;28;20078;-77
2023/09/22 09:01:02;;;;;;;1.98;0.63;;;16.50;99.90;;;;;;5054423;28;20079;-77
2023/09/22 09:03:30;;;;;;;2.00;0.80;;;16.60;99.90;;;;;;5071488;28;20405;-78
2023/09/22 09:06:08;;;;;;;1.45;0.73;;;16.60;99.90;;;;;;5052934;28;20358;-78
2023/09/22 09:08:34;;;;;;;3.40;1.23;;;16.60;99.90;;;;;;5074491;28;20032;-77
2023/09/22 09:11:10;;;;;;;4.63;0.90;;;16.60;99.90;;;;;;5055614;28;20032;-77
2023/09/22 09:13:37;;;;;;;3.60;0.65;;;16.50;99.90;;;;;;5075002;28;20035;-78
2023/09/22 09:16:08;;;;;;;1.85;0.57;;;16.80;99.90;;;;;;5079399;28;20101;-78
2023/09/22 09:18:34;;;;;;;5.55;1.27;;;16.90;99.90;;;;;;5062004;28;20078;-78
2023/09/22 09:21:06;;;;;;;0.50;0.50;;;16.80;99.90;;;;;;5060874;28;20036;-77
2023/09/22 09:23:32;;;;;;;3.75;0.32;;;16.70;99.90;;;;;;5082085;28;20021;-77
2023/09/22 09:25:58;;;;;;;1.33;0.50;;;16.80;99.90;;;;;;5081446;28;20045;-77
2023/09/22 09:28:25;;;;;;;0.57;0.57;;;16.80;99.90;;;;;;5062354;28;20106;-77
2023/09/22 09:30:54;;;;;;;0.90;0.45;;;16.90;99.90;;;;;;5082118;28;20315;-77
2023/09/22 09:33:33;;;;;;;4.05;0.82;;;16.90;99.90;;;;;;5061619;28;20021;-78
2023/09/22 09:35:59;;;;;;;2.88;0.82;;;17.30;99.90;;;;;;5079783;28;20126;-78
2023/09/22 09:38:29;;;;;;;0.60;0.57;;;17.50;99.90;;;;;;5078843;28;20032;-78
2023/09/22 09:40:56;;;;;;;6.47;1.33;;;17.60;99.90;;;;;;5060789;28;20036;-79
2023/09/22 09:43:22;;;;;;;2.70;0.75;;;17.70;99.90;;;;;;5079641;28;20028;-78
2023/09/22 09:45:57;;;;;;;4.72;0.60;;;18.00;99.90;;;;;;5081489;28;20331;-77
2023/09/22 09:48:24;;;;;;;1.23;0.65;;;17.90;99.90;;;;;;5078898;28;20037;-78
2023/09/22 09:50:53;;;;;;;3.60;1.13;;;18.20;99.90;;;;;;5060346;28;20048;-78
2023/09/22 09:53:31;;;;;;;3.20;0.52;;;18.60;99.90;;;;;;5060114;28;20029;-78
2023/09/22 09:56:00;;;;;;;1.85;0.70;;;18.60;99.90;;;;;;5061585;28;20028;-77
2023/09/22 09:58:31;;;;;;;1.98;0.73;;;18.40;99.90;;;;;;5084009;28;20021;-77
2023/09/22 10:00:57;;;;;;;1.55;0.65;;;18.50;99.90;;;;;;5083246;28;20359;-77
2023/09/22 10:03:24;;;;;;;2.28;1.02;;;18.60;99.90;;;;;;5064898;28;20075;-77
2023/09/22 10:05:55;;;;;;;1.02;0.88;;;18.70;99.90;;;;;;5060502;28;20052;-80
2023/09/22 10:08:23;;;;;;;3.95;1.02;;;18.90;99.90;;;;;;5061700;28;20034;-78
2023/09/22 10:10:51;;;;;;;0.80;0.55;;;19.20;99.90;;;;;;5064448;28;20061;-79
2023/09/22 10:13:18;;;;;;;0.40;0.30;;;19.40;99.90;;;;;;5064245;28;20055;-80
2023/09/22 10:16:01;;;;;;;0.52;0.47;;;19.40;99.90;;;;;;5064524;28;20029;-78
2023/09/22 10:18:46;;;;;;;1.15;0.75;;;19.10;99.90;;;;;;5064444;28;20073;-78
2023/09/22 10:21:45;;;;;;;3.10;0.77;;;19.00;99.90;;;;;;5064493;28;20024;-78
2023/09/22 10:24:26;;;;;;;1.95;0.75;;;19.00;99.90;;;;;;5081223;28;20017;-79
2023/09/22 10:26:55;;;;;;;2.55;0.40;;;19.30;99.90;;;;;;5062812;28;20056;-78
2023/09/22 10:29:33;;;;;;;;;;;19.60;99.90;;;;;;5063822;28;20036;-78
2023/09/22 10:32:17;;;;;;;0.65;0.35;;;19.90;99.90;;;;;;5064283;28;19913;-78
2023/09/22 10:35:10;;;;;;;1.58;0.40;;;19.90;99.90;;;;;;5063767;28;20143;-78
2023/09/22 10:37:37;;;;;;;2.90;0.55;;;19.20;99.90;;;;;;5063403;28;20048;-79
2023/09/22 10:40:19;;;;;;;3.40;0.47;;;19.50;99.90;;;;;;5081960;28;20027;-79
2023/09/22 10:42:50;;;;;;;2.00;0.30;;;19.20;99.90;;;;;;5067451;28;20033;-78
2023/09/22 10:45:21;;;;;;;3.45;0.65;;;18.90;99.90;;;;;;5067929;28;20025;-78
2023/09/22 10:47:49;;;;;;;1.73;0.73;;;18.40;99.90;;;;;;5084658;28;20036;-78
2023/09/22 10:50:19;;;;;;;1.52;0.60;;;18.20;99.90;;;;;;5064953;28;20048;-78
2023/09/22 10:53:05;;;;;;;0.80;0.28;;;18.40;99.90;;;;;;5063515;28;20324;-78
2023/09/22 10:55:36;;;;;;;0.88;0.25;;;18.70;99.90;;;;;;5083118;28;20062;-78
2023/09/22 10:58:10;;;;;;;0.60;0.40;;;18.60;99.90;;;;;;5081767;28;20021;-79
2023/09/22 11:00:44;;;;;;;3.83;0.50;;;19.00;99.90;;;;;;5063602;28;20040;-78
2023/09/22 11:03:12;;;;;;;2.08;0.88;;;19.10;99.90;;;;;;5063818;28;20029;-78
2023/09/22 11:05:39;;;;;;;1.77;0.52;;;19.10;99.90;;;;;;5082617;28;20020;-78
2023/09/22 11:08:16;;;;;;;0.30;0.30;;;19.00;99.90;;;;;;5062028;28;20029;-78
2023/09/22 11:10:43;;;;;;;2.25;0.40;;;18.90;99.90;;;;;;5064975;28;20029;-78
2023/09/22 11:13:09;;;;;;;0.80;0.40;;;18.70;99.90;;;;;;5063632;28;20044;-79
2023/09/22 11:15:54;;;;;;;0.85;0.60;;;18.70;99.90;;;;;;5063315;28;20032;-78
2023/09/22 11:18:25;;;;;;;0.50;0.50;;;18.70;99.90;;;;;;5062563;28;20346;-79
2023/09/22 11:20:57;;;;;;;0.45;0.45;;;18.80;99.90;;;;;;5080604;28;20054;-79
2023/09/22 11:23:24;;;;;;;0.43;0.43;;;19.00;99.90;;;;;;5062623;28;20012;-78
2023/09/22 11:25:55;;;;;;;3.50;0.80;;;18.90;99.90;;;;;;5042292;28;20048;-79
2023/09/22 11:28:21;;;;;;;1.52;0.40;;;18.70;99.90;;;;;;5078903;28;20009;-78
2023/09/22 11:30:48;;;;;;;1.67;0.43;;;19.00;99.90;;;;;;5063622;28;20143;-78
2023/09/22 11:33:17;;;;;;;0.38;0.38;;;18.50;99.90;;;;;;5076614;28;20038;-78
2023/09/22 11:35:45;;;;;;;1.48;0.52;;;18.30;99.90;;;;;;5056442;28;20114;-78
2023/09/22 11:38:27;;;;;;;3.83;0.90;;;18.10;99.90;;;;;;5073839;28;20070;-79
2023/09/22 11:41:16;;;;;;;0.63;0.55;;;18.20;99.90;;;;;;5054873;28;20312;-80
2023/09/22 11:43:42;;;;;;;0.70;0.63;;;18.60;99.90;;;;;;5055900;28;20021;-79
2023/09/22 11:46:09;;;;;;;3.92;0.95;;;18.70;99.90;;;;;;5070853;28;20032;-78
2023/09/22 11:49:08;;;;;;;0.60;0.60;;;18.80;99.90;;;;;;5056457;28;20131;-79
2023/09/22 11:51:54;;;;;;;2.35;0.55;;;18.70;99.90;;;;;;5037991;28;20032;-78
2023/09/22 11:54:24;;;;;;;0.55;0.45;;;18.60;99.90;;;;;;5054057;28;20047;-84
2023/09/22 11:56:52;;;;;;;0.52;0.40;;;18.60;99.90;;;;;;5052160;28;20025;-80
2023/09/22 11:59:20;;;;;;;1.00;0.50;;;18.80;99.90;;;;;;5052076;28;20353;-80
2023/09/22 12:01:46;;;;;;;0.40;0.40;;;18.90;99.90;;;;;;5051920;28;20070;-79
2023/09/22 12:04:13;;;;;;;1.92;1.00;;;19.10;99.90;;;;;;5051873;28;20031;-80
2023/09/22 12:06:40;;;;;;;3.60;0.52;;;19.50;99.90;;;;;;5051634;28;20055;-80
2023/09/22 12:09:10;;;;;;;1.70;0.82;;;19.90;99.90;;;;;;5069708;28;20043;-80
2023/09/22 12:11:37;;;;;;;3.90;0.50;;;21.30;99.90;;;;;;5069742;28;20024;-78
2023/09/22 12:14:04;;;;;;;1.08;0.70;;;23.50;99.90;;;;;;5051629;28;20050;-79
2023/09/22 12:16:29;;;;;;;4.28;0.82;;;24.40;97.50;;;;;;5051695;28;20063;-78
2023/09/22 12:18:56;;;;;;;1.85;0.50;;;23.90;98.30;;;;;;5051225;28;20060;-79
2023/09/22 12:21:22;;;;;;;2.55;0.85;;;23.20;97.50;;;;;;5050859;28;20024;-78
2023/09/22 12:23:47;;;;;;;2.10;0.30;;;23.70;96.30;;;;;;5051280;28;20047;-78
2023/09/22 12:26:13;;;;;;;1.30;0.60;;;23.70;96.60;;;;;;5069006;28;20505;-79
2023/09/22 12:28:40;;;;;;;0.40;0.40;;;24.10;96.50;;;;;;5051585;28;20508;-78
2023/09/22 12:31:06;;;;;;;1.25;0.40;;;24.80;96.10;;;;;;5051455;28;20119;-78
2023/09/22 12:33:32;;;;;;;5.10;1.02;;;24.30;92.70;;;;;;5051344;28;20587;-78
2023/09/22 12:35:58;;;;;;;0.73;0.60;;;23.70;93.20;;;;;;5050938;28;20024;-78
2023/09/22 12:38:25;;;;;;;1.30;0.52;;;23.40;94.60;;;;;;5069012;28;20024;-79
2023/09/22 12:40:51;;;;;;;1.40;0.98;;;24.30;93.70;;;;;;5051323;28;20135;-79
2023/09/22 12:43:17;;;;;;;0.60;0.57;;;24.60;93.20;;;;;;5048340;28;20381;-79
2023/09/22 12:45:43;;;;;;;3.33;0.60;;;25.10;92.20;;;;;;5051279;28;20058;-80
2023/09/22 12:48:10;;;;;;;0.95;0.50;;;25.50;90.30;;;;;;5049924;28;20028;-81
2023/09/22 12:50:36;;;;;;;1.67;0.88;;;24.60;89.80;;;;;;5050558;28;20124;-82
2023/09/22 12:53:02;;;;;;;0.30;0.30;;;23.60;90.20;;;;;;5050430;28;20112;-81
2023/09/22 12:55:28;;;;;;;0.90;0.40;;;22.70;92.50;;;;;;5050795;28;20025;-79
2023/09/22 12:57:54;;;;;;;3.35;0.75;;;22.20;92.10;;;;;;5068768;28;20016;-78
2023/09/22 13:00:19;;;;;;;0.75;0.30;;;21.70;92.80;;;;;;5049870;28;20028;-79
2023/09/22 13:02:48;;;;;;;3.80;0.60;;;21.90;94.40;;;;;;5049343;28;20025;-79
2023/09/22 13:05:14;;;;;;;;;;;22.50;92.20;;;;;;5050081;28;20037;-78
2023/09/22 13:07:40;;;;;;;1.27;0.47;;;22.80;92.40;;;;;;5067006;28;19904;-80
2023/09/22 13:10:07;;;;;;;0.35;0.30;;;22.70;91.60;;;;;;5064683;28;20044;-80
2023/09/22 13:12:37;;;;;;;1.40;0.63;;;22.30;93.20;;;;;;5046138;28;20032;-80
2023/09/22 13:15:03;;;;;;;0.65;0.40;;;21.90;94.70;;;;;;5047660;28;20036;-79
2023/09/22 13:17:29;;;;;;;0.93;0.40;;;21.40;92.50;;;;;;5067273;28;20216;-79
2023/09/22 13:19:55;;;;;;;1.13;0.80;;;21.50;93.30;;;;;;5067136;28;20107;-79
2023/09/22 13:22:21;;;;;;;1.45;0.40;;;21.50;94.10;;;;;;5067455;28;20106;-79
2023/09/22 13:24:48;;;;;;;1.80;0.63;;;21.40;94.30;;;;;;5068726;28;20078;-79
2023/09/22 13:27:13;;;;;;;2.83;0.82;;;21.80;94.30;;;;;;5050723;28;20109;-80
2023/09/22 13:29:39;;;;;;;4.22;0.68;;;22.90;93.00;;;;;;5050621;28;20041;-79
2023/09/22 13:32:06;;;;;;;3.55;0.68;;;24.90;92.70;;;;;;5069251;28;20021;-79
2023/09/22 13:34:35;;;;;;;0.93;0.40;;;25.30;87.30;;;;;;5054656;28;20101;-79
2023/09/22 13:37:03;;;;;;;1.55;0.38;;;25.80;89.30;;;;;;5071743;28;20035;-80
2023/09/22 13:39:32;;;;;;;0.45;0.30;;;26.00;82.90;;;;;;5054468;28;20067;-80
2023/09/22 13:41:59;;;;;;;0.32;0.32;;;25.70;84.80;;;;;;5072593;28;20028;-80
2023/09/22 13:44:25;;;;;;;4.07;0.50;;;25.00;87.30;;;;;;5054597;28;20037;-79
2023/09/22 13:46:51;;;;;;;1.70;0.60;;;24.40;87.60;;;;;;5054484;28;20025;-79
2023/09/22 13:49:17;;;;;;;1.17;0.63;;;23.90;87.50;;;;;;5054304;28;20481;-79
2023/09/22 13:51:43;;;;;;;2.00;0.40;;;23.20;87.50;;;;;;5072029;28;20020;-79
2023/09/22 13:54:09;;;;;;;0.40;0.40;;;22.60;89.90;;;;;;5054829;28;20029;-80
2023/09/22 13:56:35;;;;;;;0.57;0.35;;;22.80;91.20;;;;;;5054430;28;20055;-79
2023/09/22 13:59:01;;;;;;;0.93;0.60;;;23.80;90.60;;;;;;5054285;28;20025;-80
2023/09/22 14:01:27;;;;;;;1.25;0.50;;;25.30;86.80;;;;;;5072057;28;20063;-79
2023/09/22 14:03:53;;;;;;;0.60;0.30;;;26.40;83.90;;;;;;5054050;28;20070;-79
2023/09/22 14:06:21;;;;;;;0.40;0.40;;;25.80;85.00;;;;;;5053743;28;20103;-79
2023/09/22 14:08:49;;;;;;;1.65;0.40;;;24.70;86.10;;;;;;5054288;28;20078;-79
2023/09/22 14:11:16;;;;;;;0.52;0.45;;;23.70;89.90;;;;;;5072155;28;20025;-79
2023/09/22 14:13:42;;;;;;;0.85;0.55;;;22.90;91.00;;;;;;5054018;28;20073;-79
2023/09/22 14:16:08;;;;;;;9.68;1.40;;;22.40;90.40;;;;;;5072085;28;20507;-79
2023/09/22 14:18:34;;;;;;;0.55;0.50;;;22.00;91.70;;;;;;5071402;28;20020;-80
2023/09/22 14:21:00;;;;;;;2.05;0.65;;;22.00;91.60;;;;;;5053683;28;20542;-79
2023/09/22 14:23:26;;;;;;;0.63;0.57;;;22.50;91.60;;;;;;5053309;28;20024;-76
2023/09/22 14:25:53;;;;;;;0.88;0.35;;;24.10;91.30;;;;;;5071384;28;20103;-77
2023/09/22 14:28:18;;;;;;;8.75;0.60;;;25.90;87.80;;;;;;5053799;28;20170;-78
2023/09/22 14:30:45;;;;;;;0.45;0.45;;;26.80;88.10;;;;;;5053708;28;20107;-78
2023/09/22 14:33:11;;;;;;;0.45;0.43;;;27.80;81.80;;;;;;5071823;28;20027;-77
2023/09/22 14:35:36;;;;;;;0.80;0.20;;;28.70;80.30;;;;;;5071746;28;20037;-76
2023/09/22 14:38:03;;;;;;;1.30;0.50;;;27.90;79.10;;;;;;5071106;28;20029;-76
2023/09/22 14:40:29;;;;;;;1.98;0.30;;;26.40;80.90;;;;;;5071235;28;20024;-77
2023/09/22 14:42:58;;;;;;;5.95;1.00;;;25.10;83.00;;;;;;5053134;28;20047;-76
2023/09/22 14:45:25;;;;;;;0.40;0.40;;;24.00;86.60;;;;;;5071385;28;20084;-78
2023/09/22 14:47:52;;;;;;;1.27;0.50;;;23.50;89.60;;;;;;5071148;28;20028;-76
2023/09/22 14:50:18;;;;;;;1.70;0.40;;;24.30;88.10;;;;;;5071476;28;20032;-77
2023/09/22 14:52:45;;;;;;;0.95;0.38;;;25.50;87.00;;;;;;5070760;28;20029;-77
2023/09/22 14:55:10;;;;;;;1.65;0.50;;;25.30;85.00;;;;;;5071232;28;20024;-78
2023/09/22 14:57:36;;;;;;;1.77;0.52;;;24.70;87.20;;;;;;5071001;28;20094;-76
2023/09/22 15:00:04;;;;;;;2.25;0.40;;;23.70;86.80;;;;;;5071466;28;20031;-77
2023/09/22 15:02:29;;;;;;;1.20;0.45;;;23.20;89.80;;;;;;5070934;28;20051;-76
2023/09/22 15:04:55;;;;;;;1.45;0.70;;;23.50;90.50;;;;;;5071228;28;20455;-77
2023/09/22 15:07:22;;;;;;;1.27;0.40;;;25.20;88.60;;;;;;5070873;28;20138;-76